createdAt,value
2022-12-25T00:01:46.554Z,7.10
2022-12-25T00:04:13.117Z,7.07
2022-12-25T00:06:39.616Z,7.02
2022-12-25T00:09:06.032Z,7.04
2022-12-25T00:11:32.494Z,7.01
2022-12-25T00:13:58.938Z,7.00
2022-12-25T00:16:26.788Z,6.96
2022-12-25T00:18:54.334Z,6.94
2022-12-25T00:21:22.201Z,6.90
2022-12-25T00:23:54.272Z,6.91
2022-12-25T00:26:21.050Z,6.89
2022-12-25T00:28:47.620Z,6.87
2022-12-25T00:31:18.596Z,6.86
2022-12-25T00:33:47.317Z,6.83
2022-12-25T00:36:15.668Z,6.82
2022-12-25T00:38:42.791Z,6.79
2022-12-25T00:41:11.965Z,6.78
2022-12-25T00:43:39.310Z,6.76
2022-12-25T00:46:06.939Z,6.72
2022-12-25T00:48:34.783Z,6.70
2022-12-25T00:51:04.450Z,6.68
2022-12-25T00:53:31.340Z,6.65
2022-12-25T00:56:00.910Z,6.65
2022-12-25T00:58:30.537Z,6.61
2022-12-25T01:00:57.626Z,6.60
2022-12-25T01:03:24.746Z,6.58
2022-12-25T01:06:00.613Z,6.53
2022-12-25T01:08:28.979Z,6.53
2022-12-25T01:11:01.803Z,6.51
2022-12-25T01:13:29.329Z,6.51
2022-12-25T01:15:55.959Z,6.48
2022-12-25T01:18:24.505Z,6.47
2022-12-25T01:20:51.183Z,6.42
2022-12-25T01:23:17.703Z,6.43
2022-12-25T01:25:44.140Z,6.39
2022-12-25T01:28:10.599Z,6.37
2022-12-25T01:30:37.002Z,6.36
2022-12-25T01:33:03.622Z,6.35
2022-12-25T01:35:30.073Z,6.32
2022-12-25T01:37:56.869Z,6.32
2022-12-25T01:40:23.316Z,6.30
2022-12-25T01:42:49.773Z,6.30
2022-12-25T01:45:37.322Z,6.28
2022-12-25T01:48:11.518Z,6.26
2022-12-25T01:50:40.978Z,6.25
2022-12-25T01:53:07.720Z,6.22
2022-12-25T01:55:36.060Z,6.22
2022-12-25T01:58:02.799Z,6.17
2022-12-25T02:00:29.208Z,6.16
2022-12-25T02:02:56.157Z,6.18
2022-12-25T02:05:34.272Z,6.16
2022-12-25T02:08:06.272Z,6.14
2022-12-25T02:10:32.716Z,6.15
2022-12-25T02:13:00.267Z,6.14
2022-12-25T02:15:34.616Z,6.12
2022-12-25T02:18:07.071Z,6.11
2022-12-25T02:20:40.207Z,6.11
2022-12-25T02:23:20.684Z,6.05
2022-12-25T02:26:17.924Z,6.07
2022-12-25T02:29:00.771Z,6.06
2022-12-25T02:32:02.335Z,6.04
2022-12-25T02:34:39.407Z,6.03
2022-12-25T02:37:21.924Z,6.01
2022-12-25T02:40:00.542Z,6.02
2022-12-25T02:42:58.132Z,6.01
2022-12-25T02:45:56.866Z,5.99
2022-12-25T02:48:54.401Z,5.98
2022-12-25T02:51:41.821Z,5.96
2022-12-25T02:54:32.942Z,5.94
2022-12-25T02:57:22.744Z,5.93
2022-12-25T03:00:12.508Z,5.91
2022-12-25T03:03:01.518Z,5.91
2022-12-25T03:05:50.519Z,5.88
2022-12-25T03:08:22.407Z,5.88
2022-12-25T03:11:18.053Z,5.88
2022-12-25T03:13:49.741Z,5.87
2022-12-25T03:16:34.975Z,5.88
2022-12-25T03:19:21.673Z,5.87
2022-12-25T03:22:23.355Z,5.87
2022-12-25T03:25:08.939Z,5.84
2022-12-25T03:27:35.481Z,5.83
2022-12-25T03:30:20.741Z,5.82
2022-12-25T03:32:58.726Z,5.85
2022-12-25T03:35:44.305Z,5.84
2022-12-25T03:38:50.293Z,5.85
2022-12-25T03:41:56.400Z,5.84
2022-12-25T03:44:56.410Z,5.83
2022-12-25T03:47:35.140Z,5.83
2022-12-25T03:50:51.502Z,5.83
2022-12-25T03:54:08.148Z,5.82
2022-12-25T03:56:56.507Z,5.84
2022-12-25T03:59:42.560Z,5.82
2022-12-25T04:02:28.709Z,5.84
2022-12-25T04:05:13.733Z,5.81
2022-12-25T04:07:58.551Z,5.82
2022-12-25T04:10:43.910Z,5.82
2022-12-25T04:13:29.466Z,5.79
2022-12-25T04:16:14.347Z,5.80
2022-12-25T04:18:59.604Z,5.80
2022-12-25T04:21:44.464Z,5.79
2022-12-25T04:24:29.834Z,5.79
2022-12-25T04:27:15.065Z,5.78
2022-12-25T04:30:10.705Z,5.78
2022-12-25T04:32:55.480Z,5.78
2022-12-25T04:35:40.659Z,5.77
2022-12-25T04:38:07.186Z,5.77
2022-12-25T04:40:33.627Z,5.74
2022-12-25T04:43:00.060Z,5.78
2022-12-25T04:45:26.514Z,5.77
2022-12-25T04:47:52.981Z,5.78
2022-12-25T04:50:19.706Z,5.78
2022-12-25T04:52:46.139Z,5.76
2022-12-25T04:55:12.835Z,5.78
2022-12-25T04:57:39.287Z,5.78
2022-12-25T05:00:06.414Z,5.77
2022-12-25T05:02:33.244Z,5.77
2022-12-25T05:04:59.842Z,5.77
2022-12-25T05:07:26.297Z,5.76
2022-12-25T05:09:52.743Z,5.79
2022-12-25T05:12:19.208Z,5.79
2022-12-25T05:14:46.640Z,5.78
2022-12-25T05:17:13.342Z,5.78
2022-12-25T05:19:39.775Z,5.79
2022-12-25T05:22:06.188Z,5.80
2022-12-25T05:24:32.681Z,5.81
2022-12-25T05:26:59.098Z,5.79
2022-12-25T05:29:25.517Z,5.80
2022-12-25T05:31:52.045Z,5.80
2022-12-25T05:34:18.519Z,5.82
2022-12-25T05:36:44.968Z,5.82
2022-12-25T05:39:11.397Z,5.83
2022-12-25T05:41:37.854Z,5.82
2022-12-25T05:44:04.491Z,5.84
2022-12-25T05:46:31.015Z,5.83
2022-12-25T05:48:57.537Z,5.81
2022-12-25T05:51:25.105Z,5.84
2022-12-25T05:53:51.733Z,5.84
2022-12-25T05:56:18.159Z,5.85
2022-12-25T05:58:44.560Z,5.84
2022-12-25T06:01:17.125Z,5.88
2022-12-25T06:03:43.748Z,5.84
2022-12-25T06:06:10.978Z,5.88
2022-12-25T06:08:37.611Z,5.88
2022-12-25T06:11:05.835Z,5.87
2022-12-25T06:13:33.775Z,5.87
2022-12-25T06:16:03.694Z,5.87
2022-12-25T06:18:30.156Z,5.88
2022-12-25T06:20:56.591Z,5.86
2022-12-25T06:23:23.132Z,5.88
2022-12-25T06:25:49.605Z,5.88
2022-12-25T06:28:16.170Z,5.90
2022-12-25T06:30:42.568Z,5.90
2022-12-25T06:33:09.020Z,5.88
2022-12-25T06:35:39.349Z,5.90
2022-12-25T06:38:06.100Z,5.91
2022-12-25T06:40:32.732Z,5.89
2022-12-25T06:42:59.154Z,5.89
2022-12-25T06:45:25.685Z,5.92
2022-12-25T06:47:52.162Z,5.90
2022-12-25T06:50:18.636Z,5.92
2022-12-25T06:52:45.094Z,5.93
2022-12-25T06:55:11.526Z,5.93
2022-12-25T06:57:37.985Z,5.93
2022-12-25T07:00:05.114Z,5.91
2022-12-25T07:02:33.328Z,5.89
2022-12-25T07:05:00.852Z,5.94
2022-12-25T07:07:27.284Z,5.95
2022-12-25T07:09:53.713Z,5.94
2022-12-25T07:12:25.741Z,5.96
2022-12-25T07:14:54.829Z,5.93
2022-12-25T07:17:22.214Z,5.96
2022-12-25T07:19:49.648Z,5.94
2022-12-25T07:22:16.906Z,5.97
2022-12-25T07:24:43.440Z,5.96
2022-12-25T07:27:10.265Z,5.93
2022-12-25T07:29:36.742Z,5.95
2022-12-25T07:32:03.389Z,5.91
2022-12-25T07:34:29.971Z,5.95
2022-12-25T07:36:56.449Z,5.91
2022-12-25T07:39:23.642Z,5.94
2022-12-25T07:41:50.092Z,5.94
2022-12-25T07:44:16.554Z,5.91
2022-12-25T07:46:42.984Z,5.94
2022-12-25T07:49:10.707Z,5.94
2022-12-25T07:51:37.338Z,5.93
2022-12-25T07:54:04.266Z,5.95
2022-12-25T07:56:30.721Z,5.95
2022-12-25T07:58:57.129Z,5.96
2022-12-25T08:01:26.756Z,5.96
2022-12-25T08:03:58.923Z,5.97
2022-12-25T08:06:29.872Z,5.98
2022-12-25T08:09:08.328Z,5.96
2022-12-25T08:11:35.472Z,5.96
2022-12-25T08:14:01.976Z,5.95
2022-12-25T08:16:28.490Z,5.99
2022-12-25T08:18:55.017Z,5.99
2022-12-25T08:21:21.537Z,5.99
2022-12-25T08:23:48.282Z,6.01
2022-12-25T08:26:18.753Z,5.96
2022-12-25T08:28:45.851Z,6.03
2022-12-25T08:31:27.237Z,6.06
2022-12-25T08:33:56.026Z,6.07
2022-12-25T08:36:23.497Z,6.07
2022-12-25T08:38:50.245Z,6.09
2022-12-25T08:41:17.441Z,6.10
2022-12-25T08:43:44.067Z,6.06
2022-12-25T08:46:10.798Z,6.13
2022-12-25T08:48:38.341Z,6.14
2022-12-25T08:51:08.238Z,6.13
2022-12-25T08:53:34.937Z,6.13
2022-12-25T08:56:04.432Z,6.15
2022-12-25T08:58:31.012Z,6.18
2022-12-25T09:00:57.672Z,6.19
2022-12-25T09:03:24.659Z,6.20
2022-12-25T09:05:52.172Z,6.23
2022-12-25T09:08:18.965Z,6.23
2022-12-25T09:10:45.411Z,6.24
2022-12-25T09:13:12.821Z,6.27
2022-12-25T09:15:39.978Z,6.28
2022-12-25T09:18:06.577Z,6.30
2022-12-25T09:20:33.134Z,6.32
2022-12-25T09:22:59.711Z,6.31
2022-12-25T09:25:26.254Z,6.35
2022-12-25T09:27:52.906Z,6.34
2022-12-25T09:30:19.512Z,6.38
2022-12-25T09:32:45.970Z,6.36
2022-12-25T09:35:13.908Z,6.39
2022-12-25T09:37:40.405Z,6.42
2022-12-25T09:40:07.961Z,6.39
2022-12-25T09:42:34.575Z,6.44
2022-12-25T09:45:12.988Z,6.45
2022-12-25T09:47:43.615Z,6.44
2022-12-25T09:50:22.187Z,6.46
2022-12-25T09:53:00.820Z,6.49
2022-12-25T09:55:31.408Z,6.51
2022-12-25T09:58:09.842Z,6.51
2022-12-25T10:00:42.436Z,6.50
2022-12-25T10:03:21.799Z,6.53
2022-12-25T10:06:08.460Z,6.49
2022-12-25T10:08:53.372Z,6.54
2022-12-25T10:11:25.735Z,6.56
2022-12-25T10:14:07.284Z,6.57
2022-12-25T10:17:04.365Z,6.57
2022-12-25T10:19:51.476Z,6.57
2022-12-25T10:22:31.855Z,6.60
2022-12-25T10:25:00.584Z,6.62
2022-12-25T10:27:34.888Z,6.64
2022-12-25T10:30:02.050Z,6.64
2022-12-25T10:32:28.689Z,6.66
2022-12-25T10:34:55.269Z,6.66
2022-12-25T10:37:21.816Z,6.69
2022-12-25T10:39:48.254Z,6.67
2022-12-25T10:42:29.333Z,6.71
2022-12-25T10:44:56.691Z,6.73
2022-12-25T10:47:30.249Z,6.74
2022-12-25T10:49:57.941Z,6.74
2022-12-25T10:52:27.718Z,6.76
2022-12-25T10:54:55.464Z,6.79
2022-12-25T10:57:24.524Z,6.78
2022-12-25T10:59:58.799Z,6.81
2022-12-25T11:02:28.009Z,6.81
2022-12-25T11:05:04.734Z,6.81
2022-12-25T11:07:33.424Z,6.83
2022-12-25T11:10:05.674Z,6.85
2022-12-25T11:12:38.298Z,6.86
2022-12-25T11:15:26.850Z,6.87
2022-12-25T11:17:53.301Z,6.84
2022-12-25T11:20:20.670Z,6.90
2022-12-25T11:22:49.542Z,6.91
2022-12-25T11:25:25.634Z,6.92
2022-12-25T11:28:01.064Z,6.94
2022-12-25T11:30:32.408Z,6.94
2022-12-25T11:33:02.675Z,6.92
2022-12-25T11:35:32.412Z,6.98
2022-12-25T11:37:58.892Z,7.00
2022-12-25T11:40:29.575Z,7.00
2022-12-25T11:43:07.839Z,6.99
2022-12-25T11:45:41.412Z,7.03
2022-12-25T11:48:14.159Z,7.04
2022-12-25T11:50:45.433Z,7.05
2022-12-25T11:53:20.102Z,7.05
2022-12-25T11:55:54.718Z,7.07
2022-12-25T11:58:36.028Z,7.07
2022-12-25T12:01:08.629Z,7.08
2022-12-25T12:03:38.474Z,7.04
2022-12-25T12:06:20.090Z,7.11
2022-12-25T12:08:51.946Z,7.11
2022-12-25T12:11:32.324Z,7.12
2022-12-25T12:14:29.192Z,7.11
2022-12-25T12:16:55.730Z,7.13
2022-12-25T12:19:26.751Z,7.14
2022-12-25T12:21:56.976Z,7.14
2022-12-25T12:24:27.948Z,7.16
2022-12-25T12:27:13.239Z,7.18
2022-12-25T12:29:48.439Z,7.19
2022-12-25T12:32:37.737Z,7.20
2022-12-25T12:35:14.781Z,7.22
2022-12-25T12:37:42.323Z,7.23
2022-12-25T12:40:24.332Z,7.25
2022-12-25T12:42:52.234Z,7.26
2022-12-25T12:45:32.353Z,7.25
2022-12-25T12:47:58.939Z,7.28
2022-12-25T12:50:37.040Z,7.29
2022-12-25T12:53:23.698Z,7.29
2022-12-25T12:55:51.377Z,7.32
2022-12-25T12:58:33.066Z,7.31
2022-12-25T13:01:11.648Z,7.35
2022-12-25T13:03:55.991Z,7.32
2022-12-25T13:06:40.115Z,7.35
2022-12-25T13:09:27.812Z,7.33
2022-12-25T13:11:54.812Z,7.37
2022-12-25T13:14:23.271Z,7.38
2022-12-25T13:16:52.624Z,7.37
2022-12-25T13:19:24.897Z,7.39
2022-12-25T13:21:55.854Z,7.40
2022-12-25T13:24:25.872Z,7.40
2022-12-25T13:26:53.040Z,7.39
2022-12-25T13:29:28.274Z,7.42
2022-12-25T13:31:55.171Z,7.43
2022-12-25T13:34:32.385Z,7.42
2022-12-25T13:37:09.549Z,7.43
2022-12-25T13:39:39.369Z,7.44
2022-12-25T13:42:09.335Z,7.45
2022-12-25T13:44:51.912Z,7.43
2022-12-25T13:47:18.324Z,7.45
2022-12-25T13:49:45.285Z,7.46
2022-12-25T13:52:14.916Z,7.46
2022-12-25T13:54:57.609Z,7.45
2022-12-25T13:57:28.367Z,7.47
2022-12-25T13:59:55.658Z,7.46
2022-12-25T14:02:28.464Z,7.46
2022-12-25T14:04:55.261Z,7.45
2022-12-25T14:07:24.050Z,7.48
2022-12-25T14:09:56.146Z,7.48
2022-12-25T14:12:24.286Z,7.47
2022-12-25T14:14:52.699Z,7.49
2022-12-25T14:17:19.524Z,7.48
2022-12-25T14:19:45.979Z,7.49
2022-12-25T14:22:22.588Z,7.49
2022-12-25T14:24:49.259Z,7.48
2022-12-25T14:27:25.016Z,7.50
2022-12-25T14:29:55.016Z,7.51
2022-12-25T14:32:27.183Z,7.52
2022-12-25T14:34:59.485Z,7.51
2022-12-25T14:37:30.447Z,7.52
2022-12-25T14:40:02.378Z,7.54
2022-12-25T14:42:32.703Z,7.53
2022-12-25T14:45:07.368Z,7.54
2022-12-25T14:47:50.606Z,7.52
2022-12-25T14:50:38.511Z,7.54
2022-12-25T14:53:16.536Z,7.54
2022-12-25T14:55:48.104Z,7.55
2022-12-25T14:58:21.996Z,7.55
2022-12-25T15:00:58.598Z,7.56
2022-12-25T15:03:32.240Z,7.54
2022-12-25T15:06:11.163Z,7.54
2022-12-25T15:08:37.623Z,7.57
2022-12-25T15:11:04.435Z,7.56
2022-12-25T15:13:31.412Z,7.57
2022-12-25T15:16:12.417Z,7.56
2022-12-25T15:18:43.434Z,7.59
2022-12-25T15:21:17.607Z,7.58
2022-12-25T15:23:44.391Z,7.58
2022-12-25T15:26:14.263Z,7.59
2022-12-25T15:28:40.938Z,7.58
2022-12-25T15:31:21.125Z,7.58
2022-12-25T15:33:48.546Z,7.59
2022-12-25T15:36:15.304Z,7.61
2022-12-25T15:38:41.812Z,7.60
2022-12-25T15:41:35.784Z,7.61
2022-12-25T15:44:03.361Z,7.61
2022-12-25T15:46:30.081Z,7.62
2022-12-25T15:48:56.564Z,7.62
2022-12-25T15:51:23.227Z,7.61
2022-12-25T15:53:49.918Z,7.62
2022-12-25T15:56:16.452Z,7.63
2022-12-25T15:58:42.858Z,7.62
2022-12-25T16:01:15.300Z,7.65
2022-12-25T16:03:42.773Z,7.66
2022-12-25T16:06:14.530Z,7.67
2022-12-25T16:08:41.679Z,7.66
2022-12-25T16:11:08.347Z,7.64
2022-12-25T16:13:35.214Z,7.66
2022-12-25T16:16:02.835Z,7.67
2022-12-25T16:18:30.494Z,7.67
2022-12-25T16:20:58.745Z,7.67
2022-12-25T16:23:25.396Z,7.66
2022-12-25T16:25:51.865Z,7.69
2022-12-25T16:28:18.343Z,7.69
2022-12-25T16:30:45.150Z,7.70
2022-12-25T16:33:11.736Z,7.70
2022-12-25T16:35:38.215Z,7.70
2022-12-25T16:38:04.679Z,7.72
2022-12-25T16:40:31.903Z,7.71
2022-12-25T16:42:58.473Z,7.72
2022-12-25T16:45:24.950Z,7.72
2022-12-25T16:47:51.352Z,7.72
2022-12-25T16:50:17.906Z,7.72
2022-12-25T16:52:45.422Z,7.72
2022-12-25T16:55:11.884Z,7.73
2022-12-25T16:57:38.352Z,7.73
2022-12-25T17:00:05.741Z,7.73
2022-12-25T17:02:32.389Z,7.74
2022-12-25T17:05:00.373Z,7.70
2022-12-25T17:07:27.193Z,7.74
2022-12-25T17:09:53.804Z,7.74
2022-12-25T17:12:20.489Z,7.74
2022-12-25T17:14:46.996Z,7.75
2022-12-25T17:17:13.546Z,7.74
2022-12-25T17:19:40.048Z,7.76
2022-12-25T17:22:07.340Z,7.74
2022-12-25T17:24:36.255Z,7.76
2022-12-25T17:27:03.419Z,7.77
2022-12-25T17:29:31.779Z,7.75
2022-12-25T17:31:58.235Z,7.76
2022-12-25T17:34:24.826Z,7.76
2022-12-25T17:36:52.851Z,7.78
2022-12-25T17:39:19.443Z,7.76
2022-12-25T17:41:45.915Z,7.76
2022-12-25T17:44:12.420Z,7.78
2022-12-25T17:46:38.891Z,7.77
2022-12-25T17:49:05.698Z,7.80
2022-12-25T17:51:32.571Z,7.78
2022-12-25T17:54:03.131Z,7.80
2022-12-25T17:56:30.398Z,7.81
2022-12-25T17:58:59.942Z,7.80
2022-12-25T18:01:28.248Z,7.81
2022-12-25T18:03:55.294Z,7.81
2022-12-25T18:06:25.379Z,7.82
2022-12-25T18:08:54.459Z,7.79
2022-12-25T18:11:24.565Z,7.80
2022-12-25T18:13:53.279Z,7.80
2022-12-25T18:16:22.202Z,7.83
2022-12-25T18:18:52.284Z,7.82
2022-12-25T18:21:20.098Z,7.82
2022-12-25T18:23:46.632Z,7.81
2022-12-25T18:26:13.503Z,7.82
2022-12-25T18:28:42.304Z,7.82
2022-12-25T18:31:11.035Z,7.85
2022-12-25T18:33:37.544Z,7.83
2022-12-25T18:36:04.620Z,7.85
2022-12-25T18:38:31.092Z,7.84
2022-12-25T18:40:57.931Z,7.85
2022-12-25T18:43:52.289Z,7.85
2022-12-25T18:46:11.554Z,7.85
2022-12-25T18:48:39.251Z,7.86
2022-12-25T18:51:08.727Z,7.87
2022-12-25T18:53:36.082Z,7.88
2022-12-25T18:56:15.185Z,7.87
2022-12-25T18:58:41.835Z,7.85
2022-12-25T19:01:17.051Z,7.87
2022-12-25T19:03:43.853Z,7.89
2022-12-25T19:06:17.266Z,7.87
2022-12-25T19:08:43.776Z,7.88
2022-12-25T19:11:10.277Z,7.89
2022-12-25T19:13:36.722Z,7.90
2022-12-25T19:16:03.668Z,7.90
2022-12-25T19:18:30.551Z,7.91
2022-12-25T19:21:00.233Z,7.90
2022-12-25T19:23:26.628Z,7.91
2022-12-25T19:25:53.082Z,7.91
2022-12-25T19:28:19.591Z,7.91
2022-12-25T19:30:46.107Z,7.91
2022-12-25T19:33:17.701Z,7.92
2022-12-25T19:35:44.630Z,7.93
2022-12-25T19:38:11.332Z,7.93
2022-12-25T19:40:39.679Z,7.94
2022-12-25T19:43:07.369Z,7.94
2022-12-25T19:45:33.906Z,7.93
2022-12-25T19:48:00.449Z,7.94
2022-12-25T19:50:28.448Z,7.92
2022-12-25T19:52:55.662Z,7.93
2022-12-25T19:55:22.177Z,7.95
2022-12-25T19:57:49.639Z,7.96
2022-12-25T20:00:16.479Z,7.96
2022-12-25T20:02:43.378Z,7.96
2022-12-25T20:05:09.879Z,7.97
2022-12-25T20:07:36.315Z,7.95
2022-12-25T20:10:02.744Z,7.98
2022-12-25T20:12:29.206Z,7.98
2022-12-25T20:14:56.029Z,7.97
2022-12-25T20:17:22.549Z,7.99
2022-12-25T20:19:48.993Z,7.99
2022-12-25T20:22:15.474Z,7.97
2022-12-25T20:24:41.928Z,7.99
2022-12-25T20:27:08.516Z,8.00
2022-12-25T20:29:35.029Z,7.99
2022-12-25T20:32:01.594Z,8.00
2022-12-25T20:34:28.195Z,8.01
2022-12-25T20:36:56.090Z,7.98
2022-12-25T20:39:22.574Z,8.02
2022-12-25T20:41:49.000Z,8.01
2022-12-25T20:44:15.426Z,8.02
2022-12-25T20:46:41.934Z,8.02
2022-12-25T20:49:08.614Z,8.01
2022-12-25T20:51:35.171Z,8.03
2022-12-25T20:54:06.186Z,8.04
2022-12-25T20:56:32.619Z,8.02
2022-12-25T20:59:00.266Z,8.04
2022-12-25T21:01:28.663Z,8.04
2022-12-25T21:03:55.872Z,8.03
2022-12-25T21:06:22.914Z,8.05
2022-12-25T21:08:49.383Z,8.06
2022-12-25T21:11:16.738Z,8.06
2022-12-25T21:13:45.117Z,8.06
2022-12-25T21:16:15.082Z,8.06
2022-12-25T21:18:41.763Z,8.04
2022-12-25T21:21:08.683Z,8.07
2022-12-25T21:23:37.463Z,8.08
2022-12-25T21:26:18.374Z,8.04
2022-12-25T21:28:46.694Z,8.08
2022-12-25T21:31:13.477Z,8.09
2022-12-25T21:33:52.018Z,8.09
2022-12-25T21:36:24.941Z,8.09
2022-12-25T21:39:14.159Z,8.08
2022-12-25T21:41:40.645Z,8.09
2022-12-25T21:44:07.907Z,8.08
2022-12-25T21:46:34.455Z,8.09
2022-12-25T21:49:01.072Z,8.09
2022-12-25T21:51:51.483Z,8.10
2022-12-25T21:54:20.747Z,8.10
2022-12-25T21:56:48.690Z,8.09
2022-12-25T21:59:18.779Z,8.10
2022-12-25T22:01:47.025Z,8.10
2022-12-25T22:04:15.527Z,8.08
2022-12-25T22:07:00.871Z,8.10
2022-12-25T22:09:27.353Z,8.10
2022-12-25T22:12:12.427Z,8.10
2022-12-25T22:14:55.344Z,8.11
2022-12-25T22:17:47.310Z,8.10
2022-12-25T22:20:22.660Z,8.08
2022-12-25T22:22:49.448Z,8.10
2022-12-25T22:25:17.092Z,8.10
2022-12-25T22:27:44.834Z,8.10
2022-12-25T22:30:20.014Z,8.10
2022-12-25T22:32:46.767Z,8.11
2022-12-25T22:35:14.151Z,8.11
2022-12-25T22:37:42.213Z,8.12
2022-12-25T22:40:11.018Z,8.11
2022-12-25T22:42:37.505Z,8.11
2022-12-25T22:45:04.703Z,8.11
2022-12-25T22:47:31.484Z,8.12
2022-12-25T22:49:57.996Z,8.13
2022-12-25T22:52:24.707Z,8.12
2022-12-25T22:54:51.217Z,8.13
2022-12-25T22:57:17.667Z,8.12
2022-12-25T22:59:44.221Z,8.12
2022-12-25T23:02:10.816Z,8.14
2022-12-25T23:04:37.342Z,8.13
2022-12-25T23:07:03.852Z,8.14
2022-12-25T23:09:30.577Z,8.13
2022-12-25T23:11:58.208Z,8.13
2022-12-25T23:14:41.588Z,8.10
2022-12-25T23:17:32.393Z,8.13
2022-12-25T23:20:18.754Z,8.10
2022-12-25T23:23:04.886Z,8.13
2022-12-25T23:25:50.240Z,8.11
2022-12-25T23:28:36.871Z,8.11
2022-12-25T23:31:03.631Z,8.09
2022-12-25T23:33:30.211Z,8.11
2022-12-25T23:35:56.631Z,8.13
2022-12-25T23:38:23.176Z,8.13
2022-12-25T23:40:49.599Z,8.13
2022-12-25T23:43:16.062Z,8.14
2022-12-25T23:45:42.522Z,8.12
2022-12-25T23:48:08.951Z,8.14
2022-12-25T23:50:35.422Z,8.13
2022-12-25T23:53:01.874Z,8.13
2022-12-25T23:55:28.361Z,8.14
2022-12-25T23:57:54.856Z,8.12
